Date,TemperatureHighF,TemperatureAvgF,TemperatureLowF,DewpointHighF,DewpointAvgF,DewpointLowF,HumidityHigh,HumidityAvg,HumidityLow,PressureMaxIn,PressureMinIn,WindSpeedMaxMPH,WindSpeedAvgMPH,GustSpeedMaxMPH,PrecipitationSumIn
2012-1-1,46,43,40,40,34,30,91,74,65,30.34,30.04,10,3,17,0.00
2012-1-2,53,46,41,47,41,37,91,84,66,30.18,29.79,24,6,34,0.04
2012-1-3,52,49,45,47,45,41,93,86,75,30.25,30.05,24,10,30,0.14
2012-1-4,53,49,46,47,46,43,95,87,71,30.09,29.90,20,8,30,0.44
2012-1-5,47,43,40,43,39,37,92,86,76,30.34,30.08,21,8,42,0.18
2012-1-6,42,41,40,39,38,37,91,88,86,30.34,30.26,11,5,16,0.00
2012-1-7,44,42,40,42,39,37,95,91,87,30.44,30.34,15,6,17,0.03
2012-1-8,48,45,44,43,42,41,95,88,80,30.36,30.18,11,4,17,0.00
2012-1-9,49,46,42,45,42,33,93,84,65,30.28,30.16,11,3,18,0.00
2012-1-10,44,40,37,37,30,20,84,69,49,30.59,30.29,9,4,17,0.00
2012-1-11,42,38,36,35,28,20,89,67,48,30.56,30.42,14,3,21,0.00
2012-1-12,41,37,34,34,30,25,95,75,62,30.43,30.30,8,2,13,0.00
2012-1-13,40,37,34,36,35,32,97,92,85,30.35,30.05,5,1,7,0.12
2012-1-14,42,36,33,37,32,28,97,85,59,30.01,29.85,17,6,24,0.22
2012-1-15,38,33,28,31,28,25,94,83,72,30.09,29.96,8,2,12,0.01
2012-1-16,38,33,29,32,30,26,96,88,77,30.09,29.90,10,3,21,0.00
2012-1-17,36,32,27,32,29,24,95,87,66,29.98,29.77,12,3,18,0.04
2012-1-18,30,24,19,27,20,17,95,86,76,29.98,29.72,22,9,28,0.00
2012-1-19,30,26,22,27,22,18,91,85,82,29.84,29.62,14,4,25,0.00
2012-1-20,47,37,29,43,35,27,98,94,87,29.78,28.97,24,6,32,0.27
2012-1-21,46,42,39,45,39,35,95,87,81,29.85,28.95,25,9,30,0.03
2012-1-22,44,42,39,40,36,34,93,82,72,29.84,29.31,28,13,41,0.06
2012-1-23,46,42,40,40,38,36,91,85,76,29.99,29.76,11,6,20,0.00
2012-1-24,51,45,42,48,40,34,97,85,70,29.96,29.50,30,12,43,0.18
2012-1-25,46,42,40,41,38,36,95,86,68,30.21,29.78,33,7,36,0.27
2012-1-26,46,42,34,42,33,29,95,73,51,30.57,29.86,21,7,38,0.00
2012-1-27,44,38,32,36,32,29,91,79,66,30.60,30.49,8,2,14,0.00
2012-1-28,48,41,38,37,34,31,86,77,54,30.50,30.02,13,3,18,0.00
2012-1-29,47,45,41,46,44,38,97,95,86,30.02,29.77,15,5,21,0.37
2012-1-30,48,45,43,44,41,38,95,87,78,30.05,29.80,16,5,19,0.00
2012-1-31,48,45,43,42,41,40,93,87,79,30.04,29.87,16,7,28,0.00
2012-2-1,48,42,37,42,40,35,97,89,70,30.45,29.86,10,2,11,0.25
2012-2-2,46,41,38,40,39,37,96,89,75,30.49,30.29,6,1,9,0.00
2012-2-3,48,42,38,42,39,37,97,90,78,30.28,30.11,7,2,9,0.00
2012-2-4,46,41,38,40,39,37,97,91,75,30.24,30.15,6,2,10,0.00
2012-2-5,46,40,36,39,37,35,97,89,70,30.28,30.17,7,2,8,0.01
2012-2-6,48,43,36,41,38,35,97,83,68,30.17,29.95,9,3,11,0.00
2012-2-7,53,47,41,40,35,31,84,65,47,29.98,29.88,11,3,15,0.00
2012-2-8,51,47,43,46,43,40,91,86,76,30.28,29.98,16,6,25,0.09
2012-2-9,48,46,44,46,44,43,98,95,89,30.29,30.06,7,1,10,0.32
2012-2-10,53,48,44,48,46,43,98,93,80,30.06,29.89,9,2,23,0.06
2012-2-11,47,46,45,45,42,42,94,87,82,30.13,30.01,13,5,23,0.00
2012-2-12,45,44,42,43,41,40,97,92,84,30.12,29.92,10,3,15,0.07
2012-2-13,47,42,38,42,40,37,97,90,76,30.07,29.95,9,3,14,0.03
2012-2-14,46,40,36,41,39,35,97,93,77,30.20,29.89,6,2,10,0.02
2012-2-15,46,40,35,41,38,34,98,91,74,30.38,30.20,8,2,11,0.00
2012-2-16,42,42,41,42,40,37,97,92,83,30.29,30.18,14,5,21,0.03
2012-2-17,48,43,42,46,42,39,98,95,89,30.26,29.79,15,4,28,0.15
2012-2-18,44,41,38,42,40,37,97,94,88,30.02,29.80,12,5,23,0.47
2012-2-19,44,42,40,39,36,33,88,80,69,30.07,29.90,13,7,21,0.00
2012-2-20,44,42,40,42,37,33,97,84,73,30.01,29.87,14,4,17,0.22
2012-2-21,49,47,43,47,45,42,98,93,86,30.03,29.96,16,5,23,0.06
2012-2-22,51,46,41,44,38,34,85,73,57,30.28,29.93,15,9,26,0.00
2012-2-23,47,42,35,37,35,34,95,79,61,30.39,30.26,14,3,14,0.00
2012-2-24,43,41,38,41,39,37,96,93,89,30.25,29.55,25,8,30,0.75
2012-2-25,46,40,35,40,36,33,95,83,63,30.15,29.54,14,5,26,0.05
2012-2-26,40,36,32,34,28,17,92,76,48,30.25,30.15,15,4,26,0.02
2012-2-27,38,34,29,28,21,15,80,60,42,30.26,29.97,14,4,22,0.00
2012-2-28,42,39,33,35,31,28,87,75,59,29.97,29.41,23,11,36,0.00
2012-2-29,40,37,34,38,35,33,97,91,79,29.76,29.42,22,5,30,0.20
2012-3-1,45,39,35,37,35,32,97,87,64,30.31,29.76,8,2,12,0.00
2012-3-2,43,41,39,41,39,37,97,92,85,30.38,30.31,11,4,16,0.18
2012-3-3,52,47,42,46,44,41,97,88,79,30.32,30.26,21,8,26,0.00
2012-3-4,49,46,44,44,44,43,95,91,83,30.33,29.92,14,4,18,0.08
2012-3-5,45,41,35,43,36,29,96,83,59,29.91,29.67,24,7,30,0.21
2012-3-6,43,36,33,34,30,25,96,78,52,30.36,29.89,11,3,19,0.21
2012-3-7,44,37,31,36,32,27,96,83,67,30.49,30.35,13,2,13,0.00
2012-3-8,48,42,36,39,36,33,91,81,66,30.43,30.15,7,2,11,0.00
2012-3-9,47,44,39,44,42,36,97,92,85,30.19,29.95,16,5,19,0.27
2012-3-10,46,43,40,43,41,40,98,91,80,29.94,29.58,19,5,26,0.19
2012-3-11,45,42,39,40,36,30,93,79,60,29.68,29.53,21,8,32,0.01
2012-3-12,42,41,38,39,37,33,93,86,74,29.58,29.23,34,11,48,0.06
2012-3-13,41,37,33,37,33,30,96,84,72,29.84,29.32,18,6,25,0.10
2012-3-14,44,41,37,40,36,30,92,83,65,29.84,29.61,25,13,37,0.05
2012-3-15,56,47,41,48,43,38,95,85,68,29.63,29.36,25,9,34,0.35
2012-3-16,48,43,38,41,40,37,97,89,75,29.67,29.46,9,3,15,0.07
2012-3-17,50,43,36,39,35,30,92,76,55,29.64,29.42,14,5,19,0.04
2012-3-18,45,40,36,36,32,28,87,74,54,29.81,29.62,11,4,14,0.00
2012-3-19,44,39,32,37,33,29,91,79,66,29.88,29.53,29,10,37,0.00
2012-3-20,45,41,36,39,36,34,93,83,71,29.93,29.42,25,11,34,0.06
2012-3-21,46,41,36,35,33,29,90,74,52,30.03,29.83,13,3,16,0.00
2012-3-22,47,42,33,38,35,31,95,76,58,30.02,29.82,17,4,24,0.00
2012-3-23,51,43,37,39,37,33,95,79,52,30.11,29.95,7,2,9,0.00
2012-3-24,54,45,40,40,36,32,88,73,48,30.11,29.92,8,2,12,0.00
2012-3-25,56,46,38,40,37,32,88,72,53,29.91,29.70,6,2,10,0.00
2012-3-26,47,45,43,44,42,38,95,91,74,29.81,29.70,10,3,14,0.11
2012-3-27,56,49,43,45,42,38,94,76,61,29.72,29.46,16,7,26,0.00
2012-3-28,52,48,45,45,42,40,84,78,69,29.71,29.46,21,8,41,0.00
2012-3-29,46,45,41,44,42,40,96,91,80,29.60,29.40,25,5,39,0.25
2012-3-30,48,42,37,42,40,35,96,89,73,29.75,29.45,9,3,15,0.15
2012-3-31,43,41,37,40,38,36,96,91,79,29.74,29.45,9,3,13,0.03
2012-4-1,50,43,37,41,38,36,97,83,61,30.16,29.48,14,4,18,0.11
2012-4-2,57,50,43,41,39,36,89,68,48,30.16,29.83,31,10,42,0.00
2012-4-3,55,46,36,43,39,34,95,79,51,29.99,29.68,14,4,17,0.12
2012-4-4,48,41,35,40,37,34,97,88,69,30.10,29.98,7,1,11,0.01
2012-4-5,49,42,37,40,38,36,97,85,65,30.17,30.10,10,2,15,0.00
2012-4-6,50,42,34,40,36,33,96,83,60,30.31,30.16,9,2,13,0.00
2012-4-7,55,44,36,42,38,35,98,80,54,30.33,30.20,8,2,12,0.00
2012-4-8,56,49,43,41,37,30,85,64,46,30.22,30.04,10,2,16,0.00
2012-4-9,62,52,44,42,38,35,79,60,37,30.04,29.86,7,2,9,0.00
2012-4-10,60,52,46,46,42,38,81,70,57,29.86,29.73,7,1,13,0.00
2012-4-11,51,49,46,49,46,43,96,89,80,29.78,29.66,9,4,11,0.09
2012-4-12,56,47,41,48,45,40,97,91,70,29.85,29.70,8,2,13,0.02
2012-4-13,56,47,39,45,42,38,98,84,60,29.91,29.84,8,2,11,0.00
2012-4-14,59,48,41,47,43,40,97,83,59,30.11,29.91,11,4,17,0.00
2012-4-15,57,50,44,44,42,40,87,77,57,30.20,29.98,12,3,17,0.00
2012-4-16,55,49,44,49,43,35,96,80,55,30.19,29.84,25,9,32,0.21
2012-4-17,48,45,41,43,40,37,94,83,72,30.21,29.96,15,5,18,0.01
2012-4-18,55,49,45,45,42,41,87,77,60,30.08,29.90,13,5,19,0.00
2012-4-19,53,47,42,47,44,40,96,88,65,30.09,29.94,13,4,26,0.27
2012-4-20,57,50,42,47,42,35,95,76,45,30.24,29.99,19,5,21,0.01
2012-4-21,56,48,39,45,42,37,97,80,59,30.22,30.04,7,1,10,0.00
2012-4-22,65,54,46,50,45,41,88,74,53,30.04,29.90,7,1,9,0.00
2012-4-23,62,52,46,55,48,44,92,86,72,29.94,29.85,6,1,9,0.00
2012-4-24,52,50,49,51,49,48,97,94,90,29.92,29.74,7,2,9,0.11
2012-4-25,58,53,49,54,50,47,97,91,82,29.76,29.57,11,3,25,0.02
2012-4-26,56,50,46,49,43,36,97,78,48,29.99,29.59,19,5,22,0.06
2012-4-27,53,48,44,44,42,39,91,79,61,30.27,30.00,11,4,15,0.00
2012-4-28,53,50,47,47,45,43,93,85,77,30.28,30.21,10,3,12,0.00
2012-4-29,55,51,48,51,48,46,96,90,79,30.22,29.77,5,1,8,0.06
2012-4-30,53,49,46,49,45,42,97,87,70,29.83,29.63,20,8,31,0.15
2012-5-1,53,48,43,43,40,37,85,75,59,29.95,29.84,19,8,25,0.00
2012-5-2,53,45,37,43,40,36,95,81,65,30.01,29.79,13,2,15,0.00
2012-5-3,50,46,44,47,44,41,96,92,80,29.91,29.65,11,3,14,0.20
2012-5-4,56,49,44,45,40,33,91,73,48,30.33,29.91,16,9,27,0.01
2012-5-5,56,48,43,45,42,39,90,77,61,30.50,30.33,11,5,21,0.00
2012-5-6,61,50,40,48,42,39,96,77,53,30.51,30.40,7,2,9,0.00
2012-5-7,67,55,43,49,44,39,90,68,45,30.39,30.10,5,1,9,0.00
2012-5-8,59,52,48,48,42,30,90,68,36,30.14,30.08,16,5,22,0.00
2012-5-9,56,48,40,37,34,30,81,60,40,30.34,30.13,12,5,18,0.00
2012-5-10,56,47,41,38,36,31,82,65,45,30.44,30.34,10,4,12,0.00
2012-5-11,59,49,40,43,37,30,95,65,34,30.38,30.23,8,1,10,0.00
2012-5-12,68,55,42,45,39,34,90,58,29,30.27,30.14,7,1,10,0.00
2012-5-13,68,58,47,49,44,37,79,59,43,30.22,30.09,7,2,11,0.00
2012-5-14,76,63,54,49,45,41,72,54,33,30.10,29.98,8,2,10,0.00
2012-5-15,70,59,51,52,47,42,81,64,49,30.11,30.02,10,3,14,0.00
2012-5-16,62,54,46,48,45,43,93,72,55,30.10,30.04,10,3,16,0.00
2012-5-17,59,52,45,47,42,37,87,70,53,30.06,30.00,8,2,13,0.00
2012-5-18,57,50,42,44,40,34,93,71,56,30.18,30.05,12,3,16,0.00
2012-5-19,63,53,42,46,40,33,93,65,33,30.14,30.04,7,1,12,0.00
2012-5-20,58,54,51,51,45,34,95,74,50,30.04,29.93,11,2,16,0.04
2012-5-21,58,54,50,56,52,45,97,92,77,29.93,29.77,15,4,23,0.18
2012-5-22,54,52,48,48,45,42,93,79,68,29.92,29.86,13,5,21,0.00
2012-5-23,56,51,48,49,46,43,94,83,68,30.00,29.91,13,5,18,0.05
2012-5-24,59,52,47,49,45,43,92,76,57,29.96,29.84,8,2,14,0.00
2012-5-25,72,60,48,51,46,41,86,63,33,29.94,29.84,11,3,12,0.00
2012-5-26,74,62,49,50,45,38,86,55,28,29.92,29.81,9,4,14,0.00
2012-5-27,63,56,48,49,46,43,87,70,50,30.05,29.88,11,4,19,0.00
2012-5-28,60,54,51,51,46,39,92,75,55,30.11,30.03,11,4,17,0.00
2012-5-29,60,54,48,43,41,37,76,62,44,30.18,30.11,13,5,17,0.00
2012-5-30,56,52,49,49,47,43,96,84,68,30.27,30.15,6,1,10,0.11
2012-5-31,58,53,50,56,52,49,97,95,88,30.16,30.01,5,1,7,0.04
2012-6-1,66,58,50,60,55,48,98,90,68,30.00,29.87,10,3,14,0.22
2012-6-2,63,54,48,52,47,42,97,80,55,29.96,29.86,12,4,20,0.01
2012-6-3,59,52,46,44,41,38,89,69,50,30.02,29.93,12,3,17,0.00
2012-6-4,56,50,44,49,46,41,93,86,75,29.94,29.77,7,2,10,0.00
2012-6-5,60,53,49,47,43,38,91,71,47,30.19,29.82,16,9,22,0.01
2012-6-6,58,52,47,44,41,38,82,67,50,30.18,30.00,12,4,22,0.00
2012-6-7,58,51,47,53,47,42,95,84,59,29.99,29.76,19,6,30,0.50
2012-6-8,58,51,47,48,46,44,96,83,62,30.04,29.94,10,3,14,0.01
2012-6-9,61,54,46,49,46,44,95,77,61,30.19,30.03,17,6,22,0.00
2012-6-10,62,55,50,49,46,44,87,73,56,30.28,30.19,12,4,16,0.00
2012-6-11,68,58,46,52,48,45,95,72,50,30.23,30.06,7,2,10,0.00
2012-6-12,63,58,53,56,52,50,88,82,74,30.06,29.97,10,4,19,0.00
2012-6-13,61,54,48,50,45,-100,86,74,60,30.16,29.98,17,-4,21,0.00
2012-6-14,60,52,45,48,46,43,93,80,60,30.16,30.09,12,3,19,0.00
2012-6-15,64,55,44,51,47,43,96,76,55,30.22,30.15,7,2,11,0.00
2012-6-16,62,58,52,60,55,48,96,90,72,30.15,29.92,10,3,17,0.11
2012-6-17,64,57,51,55,50,46,97,79,61,29.93,29.84,23,9,28,0.06
2012-6-18,61,56,50,52,47,43,95,73,58,30.01,29.84,15,7,22,0.18
2012-6-19,63,56,51,51,48,44,89,77,58,30.18,30.01,13,3,20,0.00
2012-6-20,68,58,47,53,49,45,94,72,47,30.18,29.95,5,1,9,0.00
2012-6-21,68,60,53,54,51,48,87,72,51,29.95,29.74,8,3,11,0.00
2012-6-22,61,54,50,54,51,47,97,88,64,29.81,29.70,11,3,14,0.45
2012-6-23,61,54,50,57,51,45,98,90,75,29.97,29.69,19,4,28,0.22
2012-6-24,65,55,46,51,47,45,97,78,54,30.07,29.96,10,3,16,0.00
2012-6-25,65,56,47,54,49,46,97,80,56,30.06,29.93,10,3,17,0.00
2012-6-26,66,58,52,51,47,42,88,68,48,30.05,29.90,19,6,25,0.00
2012-6-27,66,58,50,50,47,42,84,67,52,30.08,29.93,11,2,15,0.00
2012-6-28,64,57,51,55,51,46,96,80,65,30.00,29.91,7,2,10,0.05
2012-6-29,70,62,54,59,57,53,97,84,67,30.04,29.98,12,4,18,0.01
2012-6-30,66,59,54,61,56,51,97,90,74,30.00,29.92,8,3,10,0.09
2012-7-1,66,60,54,54,50,48,84,72,55,30.05,29.95,12,3,20,0.00
2012-7-2,57,54,51,51,49,48,96,84,71,30.03,29.88,8,2,9,0.12
2012-7-3,61,54,50,54,49,43,97,82,61,30.14,29.83,20,7,26,0.42
2012-7-4,65,56,48,50,47,44,93,72,49,30.14,29.98,10,4,13,0.00
2012-7-5,70,59,48,53,48,43,91,70,38,30.05,29.99,7,2,10,0.00
2012-7-6,73,61,50,57,51,46,88,69,44,30.10,30.03,9,3,10,0.00
2012-7-7,76,62,51,57,52,48,91,72,48,30.17,30.03,8,3,10,0.00
2012-7-8,78,66,53,60,55,50,93,72,49,30.09,29.95,11,3,14,0.00
2012-7-9,71,60,52,59,54,50,95,80,65,30.08,29.99,13,6,18,0.00
2012-7-10,69,58,50,58,53,49,96,83,67,30.19,30.05,14,6,18,0.00
2012-7-11,75,62,50,60,55,50,97,80,55,30.09,29.96,8,4,11,0.00
2012-7-12,77,63,52,61,56,50,95,78,57,29.99,29.91,11,4,13,0.00
2012-7-13,70,61,54,60,57,53,96,85,68,30.05,29.94,9,4,15,0.06
2012-7-14,76,67,56,63,59,54,97,78,60,29.97,29.87,9,3,13,0.00
2012-7-15,62,57,54,57,54,52,97,92,81,29.97,29.85,11,4,14,0.09
2012-7-16,76,63,52,61,56,51,98,82,59,29.94,29.76,9,3,13,0.01
2012-7-17,78,63,53,61,56,52,95,79,52,29.87,29.77,13,4,14,0.00
2012-7-18,66,59,54,59,55,52,95,87,74,30.06,29.88,10,3,14,0.00
2012-7-19,74,63,53,59,56,52,94,79,56,30.08,29.91,8,3,12,0.00
2012-7-20,62,58,55,58,55,53,97,92,85,30.19,29.92,17,4,19,0.17
2012-7-21,71,61,55,59,56,52,96,83,62,30.19,30.06,7,2,10,0.00
2012-7-22,65,56,53,56,53,50,96,88,64,30.11,30.04,13,3,16,0.09
2012-7-23,66,58,53,55,52,50,92,82,66,30.21,30.10,13,5,18,0.01
2012-7-24,70,60,53,58,54,51,94,82,62,30.19,30.02,8,1,10,0.00
2012-7-25,74,63,55,61,57,52,94,80,60,30.04,29.92,6,2,10,0.00
2012-7-26,77,62,53,60,55,52,96,81,54,29.97,29.86,12,4,15,0.00
2012-7-27,66,59,53,56,53,51,94,81,68,30.10,29.91,11,4,21,0.00
2012-7-28,69,60,53,56,54,51,92,80,62,30.17,30.11,10,4,15,0.00
2012-7-29,72,59,50,57,53,49,97,82,57,30.17,30.08,15,5,19,0.00
2012-7-30,69,60,51,56,52,49,94,78,62,30.15,30.09,15,5,18,0.00
2012-7-31,70,61,52,55,52,49,91,73,55,30.18,30.14,10,3,13,0.00
2012-8-1,72,58,51,56,52,50,94,80,51,30.20,30.13,11,5,15,0.00
2012-8-2,72,61,53,58,54,51,92,79,59,30.18,30.10,10,4,14,0.00
2012-8-3,78,64,51,60,56,50,97,76,50,30.16,30.00,10,2,10,0.00
2012-8-4,82,71,61,61,58,55,82,65,44,30.00,29.84,7,2,10,0.00
2012-8-5,85,74,62,63,60,55,80,63,47,29.94,29.87,9,2,12,0.00
2012-8-6,70,62,54,60,57,52,93,83,69,30.09,29.94,10,4,13,0.00
2012-8-7,69,61,54,60,57,53,97,88,74,30.08,29.98,13,4,15,0.01
2012-8-8,71,63,57,57,54,53,87,75,55,30.23,30.05,13,3,18,0.01
2012-8-9,74,63,54,59,55,53,95,76,51,30.23,30.10,10,2,10,0.00
2012-8-10,74,62,54,58,55,52,93,78,56,30.15,30.04,8,2,11,0.00
2012-8-11,79,65,51,60,56,50,97,76,51,30.11,29.98,7,2,10,0.00
2012-8-12,79,68,57,58,56,54,91,67,44,30.02,29.92,7,2,10,0.00
2012-8-13,74,65,56,60,56,53,89,72,56,30.03,29.95,8,2,13,0.00
2012-8-14,74,64,56,60,56,53,92,78,57,29.99,29.90,8,4,10,0.00
2012-8-15,86,73,59,60,54,48,93,57,28,29.99,29.87,5,1,12,0.00
2012-8-16,83,74,66,58,52,48,72,49,32,29.97,29.88,8,2,11,0.00
2012-8-17,83,73,60,59,55,49,82,56,41,29.97,29.89,7,2,9,0.00
2012-8-18,70,60,55,59,56,53,95,86,68,29.95,29.89,17,5,17,0.00
2012-8-19,71,62,54,57,54,51,97,77,56,30.03,29.90,10,4,15,0.00
2012-8-20,72,64,56,56,53,51,87,69,52,30.05,29.95,10,3,12,0.00
2012-8-21,69,59,52,55,52,50,94,79,57,30.02,29.95,12,5,16,0.00
2012-8-22,70,60,51,53,51,49,92,74,49,30.09,30.02,9,4,16,0.00
2012-8-23,68,59,53,54,49,42,89,71,42,30.09,30.03,19,5,22,0.00
2012-8-24,67,59,53,52,50,47,88,72,51,30.20,30.04,7,2,10,0.00
2012-8-25,72,61,51,56,52,47,95,74,49,30.04,29.74,7,1,9,0.00
2012-8-26,66,59,53,55,52,49,91,79,62,29.93,29.74,9,3,14,0.00
2012-8-27,72,60,52,55,52,50,94,76,51,30.05,29.92,9,3,13,0.00
2012-8-28,69,61,54,53,52,49,88,72,50,30.06,30.01,10,3,14,0.00
2012-8-29,67,61,54,55,53,50,91,76,60,30.13,30.06,8,3,15,0.00
2012-8-30,69,60,52,53,51,47,90,72,52,30.05,29.91,8,3,11,0.00
2012-8-31,69,58,49,52,49,46,93,73,52,29.98,29.93,8,2,11,0.00
2012-9-1,69,57,49,53,48,44,92,72,44,30.12,29.99,12,4,21,0.00
2012-9-2,69,58,49,53,50,45,93,76,49,30.19,30.12,8,2,15,0.00
2012-9-3,70,58,50,55,52,49,96,79,52,30.20,30.13,6,2,10,0.00
2012-9-4,70,60,51,56,52,48,93,78,57,30.23,30.12,6,2,10,0.00
2012-9-5,68,60,51,57,54,49,95,80,67,30.12,29.95,7,2,10,0.00
2012-9-6,77,66,55,55,51,43,89,61,36,30.07,29.99,6,1,9,0.00
2012-9-7,76,66,56,56,50,46,81,59,40,30.16,30.03,8,2,13,0.00
2012-9-8,78,65,56,55,52,49,88,64,40,30.05,29.85,9,2,14,0.00
2012-9-9,64,60,55,55,53,49,94,78,68,29.98,29.91,11,5,17,0.03
2012-9-10,64,57,50,54,47,42,93,71,45,30.19,29.92,19,6,24,0.01
2012-9-11,61,56,46,48,44,42,94,65,51,30.35,30.30,10,2,13,0.00
2012-9-12,66,56,48,52,47,42,94,74,47,30.40,30.27,7,2,11,0.00
2012-9-13,72,60,51,53,48,44,87,66,40,30.27,30.06,6,1,10,0.00
2012-9-14,71,61,51,53,49,44,86,65,47,30.11,30.02,5,1,9,0.00
2012-9-15,70,60,53,53,51,48,87,72,52,30.19,30.06,8,2,13,0.00
2012-9-16,72,60,51,54,51,49,94,73,49,30.24,30.13,8,2,9,0.00
2012-9-17,75,64,55,53,49,45,86,61,34,30.14,30.01,6,1,10,0.00
2012-9-18,75,63,56,53,50,46,77,62,46,30.07,30.01,6,2,9,0.00
2012-9-19,70,59,49,54,51,47,94,77,57,30.16,30.07,6,2,8,0.00
2012-9-20,71,58,47,56,51,46,97,81,54,30.11,29.99,13,4,17,0.00
2012-9-21,61,56,51,53,52,49,95,87,76,30.14,30.07,9,3,13,0.00
2012-9-22,64,57,49,52,49,46,92,76,58,30.16,30.12,10,2,12,0.00
2012-9-23,66,56,48,55,50,46,94,82,61,30.18,30.12,5,1,8,0.00
2012-9-24,65,56,48,53,50,46,96,83,64,30.15,30.10,6,2,9,0.00
2012-9-25,64,55,49,53,50,47,97,84,65,30.16,30.10,6,2,9,0.00
2012-9-26,65,54,46,53,50,45,97,86,65,30.14,30.06,5,1,9,0.00
2012-9-27,69,56,46,55,51,45,97,84,59,30.09,29.95,5,1,8,0.01
2012-9-28,67,58,52,56,52,50,91,81,62,30.03,29.93,7,2,9,0.00
2012-9-29,62,56,49,54,51,47,96,84,67,30.32,30.04,5,1,9,0.00
2012-9-30,65,54,46,51,48,46,97,80,53,30.42,30.31,8,1,9,0.01
2012-10-1,71,57,47,60,51,44,95,80,65,30.37,30.08,12,3,18,0.00
2012-10-2,61,53,45,48,43,36,92,71,46,30.35,30.16,11,2,14,0.00
2012-10-3,63,55,48,43,37,31,75,52,34,30.43,30.31,8,2,11,0.00
2012-10-4,63,55,49,46,41,32,74,60,40,30.34,30.27,7,1,11,0.00
2012-10-5,66,55,47,48,42,37,88,64,38,30.33,30.24,7,2,10,0.00
2012-10-6,65,55,48,45,42,39,83,62,39,30.27,30.14,6,2,7,0.00
2012-10-7,68,56,48,49,44,41,93,68,47,30.14,29.93,5,1,9,0.00
2012-10-8,68,56,47,50,47,43,94,74,46,30.01,29.93,8,2,11,0.00
2012-10-9,59,52,48,50,48,46,96,89,70,30.13,30.02,10,4,13,0.00
2012-10-10,50,48,44,49,47,43,98,97,94,30.05,30.00,6,1,7,0.01
2012-10-17,54,50,48,47,46,45,92,86,72,30.28,30.22,5,1,8,0.00
2012-10-18,53,49,46,50,47,45,97,93,78,30.22,29.73,19,2,26,0.50
2012-10-19,56,52,45,54,47,42,96,84,60,29.80,29.69,14,7,21,0.06
2012-10-20,47,44,42,43,40,38,95,85,73,29.86,29.77,15,5,23,0.02
2012-10-21,49,44,40,43,41,38,96,87,71,29.87,29.80,11,4,16,0.19
2012-10-22,49,44,40,43,39,36,96,83,65,29.80,29.59,11,3,22,0.20
2012-10-23,49,45,42,44,42,41,97,90,79,29.86,29.65,13,4,16,0.08
2012-10-24,47,45,43,43,42,40,95,88,81,30.18,29.86,9,2,12,0.09
2012-10-25,50,46,43,45,43,41,95,90,80,30.43,30.18,7,1,10,0.00
2012-10-26,46,45,44,45,43,41,97,91,81,30.33,30.02,11,3,23,0.14
2012-10-27,54,48,45,52,47,45,98,97,93,30.02,29.72,14,4,21,0.46
2012-10-28,57,53,50,52,50,48,97,89,76,29.93,29.76,16,4,22,0.04
2012-10-29,58,52,48,56,50,48,98,93,81,29.96,29.69,13,3,18,0.45
2012-10-30,54,52,50,54,51,50,98,97,95,29.92,29.72,8,3,13,0.74
2012-10-31,57,53,51,56,52,51,99,97,94,29.74,29.55,10,3,24,0.31
2012-11-1,55,52,51,53,51,50,98,96,92,29.99,29.69,8,2,13,0.04
2012-11-2,56,53,52,52,51,50,98,93,86,30.01,29.90,18,4,25,0.11
2012-11-3,55,53,52,53,52,51,98,94,89,30.16,29.90,16,6,24,0.10
2012-11-4,58,55,52,57,54,49,98,95,81,30.28,30.08,11,4,26,0.22
2012-11-5,57,51,44,49,46,43,96,83,66,30.39,30.19,13,2,15,0.00
2012-11-6,51,48,44,50,47,43,97,94,82,30.20,29.89,11,3,19,0.20
2012-11-7,52,47,44,44,42,39,90,81,70,30.12,29.96,13,5,18,0.00
2012-11-8,50,46,42,43,39,36,89,78,63,29.96,29.85,10,3,17,0.00
2012-11-9,47,43,39,38,31,24,81,64,47,29.98,29.88,12,2,17,0.00
2012-11-10,43,38,33,31,24,21,87,59,44,30.22,29.99,14,4,19,0.00
2012-11-11,45,42,34,44,36,30,95,82,63,30.23,30.02,21,7,26,0.57
2012-11-12,50,47,45,47,46,43,97,94,91,30.19,30.03,15,4,19,0.03
2012-11-13,49,47,45,48,46,45,98,97,95,30.19,30.13,9,2,11,0.07
2012-11-14,51,45,42,47,44,41,98,95,81,30.34,30.19,4,1,9,0.00
2012-11-15,47,42,39,44,41,38,98,95,85,30.31,29.95,6,1,9,0.00
2012-11-16,50,45,40,46,42,40,98,91,80,29.95,29.63,17,4,26,0.00
2012-11-17,54,48,44,47,44,42,96,87,72,29.64,29.38,30,8,34,0.18
2012-11-18,49,46,43,46,43,41,94,88,79,29.68,29.38,28,12,41,0.12
2012-11-19,49,47,43,48,46,42,98,96,89,29.66,29.30,18,5,26,1.16
2012-11-20,51,47,41,47,44,40,98,92,81,29.67,29.43,22,5,34,0.08
2012-11-21,44,42,39,44,40,37,97,93,87,30.27,29.50,16,3,19,0.27
2012-11-22,48,44,40,41,40,38,96,84,69,30.34,30.09,26,7,30,0.01
2012-11-23,49,47,42,47,45,39,97,92,71,30.12,30.00,28,7,38,0.25
2012-11-24,48,43,38,43,41,38,98,93,77,30.29,30.12,8,1,11,0.01
2012-11-25,46,41,39,43,40,38,98,93,83,30.37,30.27,5,1,9,0.02
2012-11-26,44,41,39,38,36,34,90,81,68,30.28,30.09,8,2,13,0.01
2012-11-27,46,42,38,39,37,34,92,82,71,30.10,29.92,7,1,10,0.00
2012-11-28,49,43,38,47,41,37,97,92,85,29.92,29.59,17,2,19,0.07
2012-11-29,56,52,48,48,46,44,92,82,67,29.66,29.38,21,11,33,0.00
2012-11-30,53,50,49,49,47,45,95,88,73,29.39,29.29,21,9,32,0.20
2012-12-1,50,48,46,47,45,43,96,89,81,29.53,29.26,20,7,30,0.36
2012-12-2,49,46,44,46,44,42,95,91,79,29.70,29.15,14,4,21,0.30
2012-12-3,52,46,43,46,44,41,96,91,75,29.98,29.56,19,8,32,0.26
2012-12-4,52,48,41,46,43,39,94,83,70,29.78,29.41,25,10,35,0.24
2012-12-5,46,43,40,41,39,36,94,85,78,30.16,29.77,19,4,34,0.06
2012-12-6,43,42,39,41,40,38,96,94,91,30.15,30.03,7,2,13,0.28
2012-12-7,45,42,38,42,38,33,96,85,75,30.13,29.92,13,4,21,0.16
2012-12-8,43,38,35,38,35,33,94,88,75,30.36,30.13,5,1,7,0.00
2012-12-9,40,39,38,39,37,35,97,93,83,30.38,30.31,10,3,14,0.07
2012-12-10,46,42,37,44,41,36,97,95,92,30.42,30.06,8,1,15,0.00
2012-12-11,45,43,42,44,42,40,97,94,90,30.05,29.53,14,4,23,0.08
2012-12-12,45,42,41,42,40,38,96,90,81,30.04,29.61,5,1,12,0.01
2012-12-13,44,41,40,40,40,39,97,93,85,30.05,29.77,15,4,23,0.31
2012-12-14,43,39,35,40,37,34,97,91,79,29.93,29.78,9,2,17,0.13
2012-12-15,41,40,38,39,37,34,96,89,78,29.88,29.47,27,10,34,0.17
2012-12-16,43,40,39,42,38,36,95,90,84,29.70,28.93,24,10,33,0.26
2012-12-17,44,40,35,42,36,32,97,88,71,29.84,28.92,20,7,29,0.38
2012-12-18,40,36,34,36,34,33,96,92,82,29.94,29.84,15,4,24,0.11
2012-12-19,42,39,37,39,36,34,93,89,83,29.86,29.49,33,14,42,0.23
2012-12-20,43,41,39,42,39,37,96,94,89,29.79,29.47,16,6,22,0.24
2012-12-21,45,41,39,40,37,34,91,85,73,29.78,29.68,18,7,25,0.01
2012-12-22,46,42,40,41,39,36,92,87,81,29.68,29.45,19,5,28,0.02
2012-12-23,45,43,40,39,39,38,95,85,78,29.82,29.63,25,7,31,0.08
2012-12-24,42,40,39,41,39,38,98,96,89,30.16,29.82,14,2,22,0.12
2012-12-25,42,41,38,39,37,33,95,86,71,30.02,29.64,22,7,31,0.47
2012-12-26,44,43,40,41,39,37,97,88,80,29.93,29.68,15,6,19,0.04
2012-12-27,44,41,40,44,40,39,98,96,95,30.15,29.94,9,1,11,0.08
2012-12-28,45,42,40,41,40,39,96,90,83,30.16,30.11,10,3,14,0.02
2012-12-29,41,40,40,40,39,38,98,97,94,30.25,30.16,5,1,7,0.11
2012-12-30,40,37,34,39,36,34,98,96,92,30.34,30.25,5,1,6,0.00
2012-12-31,39,37,35,37,35,34,97,95,94,30.47,30.27,7,1,8,0.10
2013-1-1,39,38,35,38,35,33,96,91,81,30.53,30.38,7,2,10,0.00